createdAt,value
2023-04-07T00:22:12.124Z,59.75
2023-04-07T00:27:46.258Z,55.14
2023-04-07T00:34:23.892Z,53.22
2023-04-07T00:39:00.939Z,56.40
2023-04-07T00:44:25.121Z,53.67
2023-04-07T01:01:59.653Z,54.03
2023-04-07T01:14:31.904Z,60.15
2023-04-07T01:26:58.194Z,60.37
2023-04-07T01:32:45.038Z,59.75
2023-04-07T01:38:32.203Z,61.68
2023-04-07T01:57:14.718Z,69.80
2023-04-07T02:22:14.965Z,73.20
2023-04-07T02:51:36.140Z,73.43
2023-04-07T03:03:18.195Z,75.98
2023-04-07T03:09:39.297Z,76.05
2023-04-07T03:15:50.513Z,74.10
2023-04-07T03:21:46.585Z,75.21
2023-04-07T03:33:58.702Z,77.59
2023-04-07T03:39:51.616Z,80.39
2023-04-07T03:45:15.870Z,82.48
2023-04-07T03:57:11.435Z,81.10
2023-04-07T04:09:09.545Z,83.22
2023-04-07T04:14:51.286Z,80.86
2023-04-07T04:43:56.234Z,82.63
2023-04-07T05:02:19.253Z,74.47
2023-04-07T05:14:34.390Z,72.01
2023-04-07T05:32:48.000Z,68.40
2023-04-07T05:55:50.113Z,29.91
2023-04-07T06:12:59.960Z,22.82
2023-04-07T06:18:15.582Z,23.18
2023-04-07T06:23:20.584Z,21.02
2023-04-07T06:28:38.264Z,21.58
2023-04-07T06:33:46.630Z,22.64
2023-04-07T06:39:00.321Z,26.11
2023-04-07T06:44:09.594Z,24.51
2023-04-07T06:49:27.917Z,25.50
2023-04-07T07:00:19.603Z,30.27
2023-04-07T07:05:36.766Z,30.56
2023-04-07T07:10:41.658Z,30.89
2023-04-07T07:15:46.373Z,30.63
2023-04-07T07:20:57.033Z,31.20
2023-04-07T07:26:07.234Z,31.36
2023-04-07T07:31:49.386Z,31.86
2023-04-07T07:42:15.632Z,32.83
2023-04-07T07:47:44.921Z,29.93
2023-04-07T07:52:49.797Z,29.40
2023-04-07T07:58:09.747Z,29.42
2023-04-07T08:03:12.342Z,31.37
2023-04-07T08:08:22.401Z,31.69
2023-04-07T08:13:29.720Z,30.94
2023-04-07T08:18:32.967Z,31.75
2023-04-07T08:23:40.616Z,31.14
2023-04-07T08:28:45.927Z,28.68
2023-04-07T08:34:11.883Z,29.37
2023-04-07T08:39:34.560Z,33.21
2023-04-07T08:45:24.737Z,33.21
2023-04-07T08:50:54.464Z,32.76
2023-04-07T09:01:25.914Z,30.32
2023-04-07T09:06:48.050Z,33.78
2023-04-07T09:22:57.078Z,33.03
2023-04-07T09:28:10.829Z,34.84
2023-04-07T09:33:38.672Z,34.95
2023-04-07T09:38:56.694Z,33.16
2023-04-07T09:43:59.646Z,33.17
2023-04-07T09:49:17.777Z,31.93
2023-04-07T09:54:54.432Z,32.52
2023-04-07T10:00:01.786Z,34.84
2023-04-07T10:05:21.989Z,33.95
2023-04-07T10:10:48.311Z,32.06
2023-04-07T10:16:05.982Z,30.27
2023-04-07T10:21:23.870Z,32.75
2023-04-07T10:26:33.496Z,32.55
2023-04-07T10:38:25.143Z,32.37
2023-04-07T10:43:54.205Z,32.45
2023-04-07T10:54:58.389Z,34.33
2023-04-07T11:00:14.622Z,35.44
2023-04-07T11:05:27.340Z,34.68
2023-04-07T11:10:29.842Z,35.36
2023-04-07T11:16:22.870Z,34.63
2023-04-07T11:28:30.931Z,34.09
2023-04-07T11:33:36.786Z,34.92
2023-04-07T11:38:40.297Z,35.19
2023-04-07T11:43:48.182Z,34.80
2023-04-07T11:48:54.993Z,35.19
2023-04-07T11:54:07.501Z,35.47
2023-04-07T11:59:28.211Z,36.83
2023-04-07T12:04:48.918Z,38.49
2023-04-07T12:09:58.684Z,38.75
2023-04-07T12:15:11.757Z,39.78
2023-04-07T12:20:37.624Z,41.38
2023-04-07T12:25:59.071Z,40.98
2023-04-07T12:31:01.582Z,41.79
2023-04-07T12:36:47.117Z,42.92
2023-04-07T12:42:18.464Z,42.90
2023-04-07T12:47:41.699Z,43.63
2023-04-07T12:52:48.585Z,44.14
2023-04-07T12:57:54.380Z,43.68
2023-04-07T13:02:57.119Z,43.62
2023-04-07T13:08:13.785Z,43.89
2023-04-07T13:13:21.969Z,43.72
2023-04-07T13:18:24.460Z,44.55
2023-04-07T13:23:39.380Z,45.17
2023-04-07T13:28:53.496Z,46.15
2023-04-07T13:34:01.312Z,45.23
2023-04-07T13:39:05.638Z,45.01
2023-04-07T13:44:10.430Z,44.77
2023-04-07T13:49:26.681Z,45.24
2023-04-07T13:54:55.631Z,44.98
2023-04-07T14:00:06.562Z,44.82
2023-04-07T14:05:17.855Z,44.23
2023-04-07T14:10:36.047Z,44.42
2023-04-07T14:15:46.089Z,43.90
2023-04-07T14:20:48.514Z,43.78
2023-04-07T14:25:55.075Z,45.05
2023-04-07T14:31:09.797Z,45.58
2023-04-07T14:36:25.057Z,46.45
2023-04-07T14:41:30.287Z,46.96
2023-04-07T14:46:41.018Z,46.40
2023-04-07T14:51:50.086Z,46.38
2023-04-07T14:56:57.803Z,47.53
2023-04-07T15:02:02.176Z,47.79
2023-04-07T15:07:05.600Z,47.83
2023-04-07T15:12:14.857Z,47.09
2023-04-07T15:17:42.481Z,46.89
2023-04-07T15:22:49.109Z,47.53
2023-04-07T15:27:55.564Z,47.62
2023-04-07T15:33:20.269Z,48.17
2023-04-07T15:38:25.004Z,49.84
2023-04-07T15:43:33.284Z,50.61
2023-04-07T15:48:55.625Z,51.61
2023-04-07T15:59:23.229Z,53.34
2023-04-07T16:04:25.659Z,53.04
2023-04-07T16:09:28.851Z,53.33
2023-04-07T16:14:31.582Z,53.36
2023-04-07T16:19:33.997Z,52.65
2023-04-07T16:24:36.347Z,52.99
2023-04-07T16:29:38.626Z,52.87
2023-04-07T16:34:41.048Z,53.67
2023-04-07T16:39:43.357Z,54.34
2023-04-07T16:44:45.814Z,56.61
2023-04-07T16:49:47.996Z,59.65
2023-04-07T16:54:50.708Z,61.24
2023-04-07T16:59:53.148Z,63.49
2023-04-07T17:04:55.378Z,64.72
2023-04-07T17:09:58.999Z,65.64
2023-04-07T17:15:01.962Z,64.85
2023-04-07T17:20:05.336Z,65.22
2023-04-07T17:25:08.392Z,65.84
2023-04-07T17:30:11.082Z,65.95
2023-04-07T17:35:13.409Z,65.25
2023-04-07T17:40:16.017Z,65.87
2023-04-07T17:45:18.426Z,67.22
2023-04-07T17:50:20.992Z,68.36
2023-04-07T17:55:23.599Z,68.59
2023-04-07T18:00:26.537Z,69.18
2023-04-07T18:05:31.319Z,69.80
2023-04-07T18:10:35.827Z,70.16
2023-04-07T18:15:38.909Z,70.43
2023-04-07T18:20:41.850Z,70.71
2023-04-07T18:25:44.241Z,73.03
2023-04-07T18:30:47.246Z,74.20
2023-04-07T18:35:49.784Z,75.51
2023-04-07T18:40:53.433Z,75.60
2023-04-07T18:45:55.820Z,77.15
2023-04-07T18:50:58.179Z,77.61
2023-04-07T18:56:00.668Z,78.11
2023-04-07T19:01:02.981Z,77.20
2023-04-07T19:06:06.472Z,77.93
2023-04-07T19:11:09.483Z,79.80
2023-04-07T19:16:11.835Z,80.06
2023-04-07T19:21:14.359Z,81.70
2023-04-07T19:26:16.962Z,82.34
2023-04-07T19:31:19.330Z,82.13
2023-04-07T19:36:21.638Z,82.02
2023-04-07T19:41:23.988Z,81.57
2023-04-07T19:46:26.352Z,82.44
2023-04-07T19:51:28.964Z,83.81
2023-04-07T19:56:31.279Z,82.81
2023-04-07T20:01:33.919Z,83.86
2023-04-07T20:06:39.314Z,83.66
2023-04-07T20:11:41.601Z,82.13
2023-04-07T20:16:44.367Z,83.52
2023-04-07T20:21:50.141Z,82.54
2023-04-07T20:26:52.560Z,83.61
2023-04-07T20:31:55.046Z,84.31
2023-04-07T20:36:58.940Z,82.82
2023-04-07T20:42:02.194Z,84.55
2023-04-07T20:47:11.819Z,84.87
2023-04-07T20:52:14.724Z,85.22
2023-04-07T20:57:17.228Z,88.46
2023-04-07T21:02:20.663Z,89.71
2023-04-07T21:07:23.144Z,90.64
2023-04-07T21:12:25.455Z,89.71
2023-04-07T21:17:27.887Z,89.86
2023-04-07T21:22:31.343Z,91.30
2023-04-07T21:27:41.568Z,95.58
2023-04-07T21:32:49.468Z,96.70
2023-04-07T21:37:52.042Z,96.77
2023-04-07T21:42:54.594Z,97.93
2023-04-07T21:47:57.379Z,98.67
2023-04-07T21:53:03.467Z,96.62
2023-04-07T21:58:06.020Z,98.90
2023-04-07T22:03:09.307Z,100.00
2023-04-07T22:08:13.436Z,100.00
2023-04-07T22:13:26.984Z,100.00
2023-04-07T22:18:30.254Z,100.00
2023-04-07T22:23:35.280Z,100.00
2023-04-07T22:28:37.757Z,100.00
2023-04-07T22:33:40.529Z,100.00
2023-04-07T22:38:45.957Z,100.00
2023-04-07T22:43:48.614Z,100.00
2023-04-07T22:48:51.564Z,100.00
2023-04-07T22:53:56.997Z,100.00
2023-04-07T22:59:05.968Z,100.00
2023-04-07T23:04:08.437Z,99.57
2023-04-07T23:09:20.865Z,99.25
2023-04-07T23:14:23.495Z,99.05
2023-04-07T23:19:28.465Z,97.41
2023-04-07T23:24:31.384Z,99.82
2023-04-07T23:29:34.377Z,99.30
2023-04-07T23:34:36.837Z,100.00
2023-04-07T23:39:39.482Z,99.46
2023-04-07T23:44:41.991Z,99.14
2023-04-07T23:49:46.967Z,97.83
2023-04-07T23:54:51.999Z,97.86
2023-04-07T23:59:55.302Z,97.82
